sensor_id;sensor_type;location;lat;lon;timestamp;P1;durP1;ratioP1;P2;durP2;ratioP2
20002;SDS011;10162;41.600;23.806;2022-07-04T00:00:04;11.00;;;9.27;;
20002;SDS011;10162;41.600;23.806;2022-07-04T00:05:39;11.27;;;9.83;;
20002;SDS011;10162;41.600;23.806;2022-07-04T00:08:05;10.53;;;9.07;;
20002;SDS011;10162;41.600;23.806;2022-07-04T00:13:20;10.67;;;9.57;;
20002;SDS011;10162;41.600;23.806;2022-07-04T00:15:46;10.50;;;9.50;;
20002;SDS011;10162;41.600;23.806;2022-07-04T00:18:12;9.97;;;8.97;;
20002;SDS011;10162;41.600;23.806;2022-07-04T00:23:39;10.43;;;9.40;;
20002;SDS011;10162;41.600;23.806;2022-07-04T00:26:05;10.63;;;9.53;;
20002;SDS011;10162;41.600;23.806;2022-07-04T00:28:31;10.70;;;9.67;;
20002;SDS011;10162;41.600;23.806;2022-07-04T00:33:46;11.30;;;9.73;;
20002;SDS011;10162;41.600;23.806;2022-07-04T00:36:12;10.90;;;9.40;;
20002;SDS011;10162;41.600;23.806;2022-07-04T00:38:38;10.27;;;9.30;;
20002;SDS011;10162;41.600;23.806;2022-07-04T00:46:31;12.40;;;9.70;;
20002;SDS011;10162;41.600;23.806;2022-07-04T00:48:57;10.67;;;9.60;;
20002;SDS011;10162;41.600;23.806;2022-07-04T00:54:13;10.73;;;9.50;;
20002;SDS011;10162;41.600;23.806;2022-07-04T00:56:41;12.63;;;11.43;;
20002;SDS011;10162;41.600;23.806;2022-07-04T00:59:08;11.03;;;9.13;;
20002;SDS011;10162;41.600;23.806;2022-07-04T01:05:21;13.07;;;10.50;;
20002;SDS011;10162;41.600;23.806;2022-07-04T01:07:47;11.20;;;9.27;;
20002;SDS011;10162;41.600;23.806;2022-07-04T01:10:13;10.00;;;9.00;;
20002;SDS011;10162;41.600;23.806;2022-07-04T01:12:38;10.20;;;9.20;;
20002;SDS011;10162;41.600;23.806;2022-07-04T01:15:05;10.40;;;9.40;;
20002;SDS011;10162;41.600;23.806;2022-07-04T01:17:31;10.40;;;9.30;;
20002;SDS011;10162;41.600;23.806;2022-07-04T01:19:57;10.47;;;8.83;;
20002;SDS011;10162;41.600;23.806;2022-07-04T01:25:43;11.40;;;9.97;;
20002;SDS011;10162;41.600;23.806;2022-07-04T01:28:09;11.27;;;9.43;;
20002;SDS011;10162;41.600;23.806;2022-07-04T01:34:23;10.80;;;9.47;;
20002;SDS011;10162;41.600;23.806;2022-07-04T01:36:49;11.00;;;8.43;;
20002;SDS011;10162;41.600;23.806;2022-07-04T01:39:14;10.60;;;9.50;;
20002;SDS011;10162;41.600;23.806;2022-07-04T01:45:27;11.83;;;9.67;;
20002;SDS011;10162;41.600;23.806;2022-07-04T01:47:53;10.10;;;9.20;;
20002;SDS011;10162;41.600;23.806;2022-07-04T01:50:20;10.93;;;9.53;;
20002;SDS011;10162;41.600;23.806;2022-07-04T01:52:46;12.97;;;9.83;;
20002;SDS011;10162;41.600;23.806;2022-07-04T01:55:12;11.73;;;9.57;;
20002;SDS011;10162;41.600;23.806;2022-07-04T01:57:38;12.30;;;9.57;;
20002;SDS011;10162;41.600;23.806;2022-07-04T02:00:08;12.23;;;10.37;;
20002;SDS011;10162;41.600;23.806;2022-07-04T02:02:57;11.23;;;10.07;;
20002;SDS011;10162;41.600;23.806;2022-07-04T02:05:23;12.67;;;10.70;;
20002;SDS011;10162;41.600;23.806;2022-07-04T02:07:49;14.47;;;10.57;;
20002;SDS011;10162;41.600;23.806;2022-07-04T02:13:20;14.87;;;9.70;;
20002;SDS011;10162;41.600;23.806;2022-07-04T02:15:45;12.20;;;10.80;;
20002;SDS011;10162;41.600;23.806;2022-07-04T02:18:11;10.97;;;9.87;;
20002;SDS011;10162;41.600;23.806;2022-07-04T02:23:38;13.53;;;11.00;;
20002;SDS011;10162;41.600;23.806;2022-07-04T02:26:04;10.63;;;9.63;;
20002;SDS011;10162;41.600;23.806;2022-07-04T02:28:30;11.10;;;9.97;;
20002;SDS011;10162;41.600;23.806;2022-07-04T02:33:45;12.50;;;10.83;;
20002;SDS011;10162;41.600;23.806;2022-07-04T02:36:10;11.90;;;10.73;;
20002;SDS011;10162;41.600;23.806;2022-07-04T02:38:36;12.63;;;11.23;;
20002;SDS011;10162;41.600;23.806;2022-07-04T02:44:55;11.57;;;10.40;;
20002;SDS011;10162;41.600;23.806;2022-07-04T02:47:21;11.60;;;10.33;;
20002;SDS011;10162;41.600;23.806;2022-07-04T02:49:47;14.37;;;10.93;;
20002;SDS011;10162;41.600;23.806;2022-07-04T02:55:59;13.30;;;10.10;;
20002;SDS011;10162;41.600;23.806;2022-07-04T02:58:29;13.67;;;10.40;;
20002;SDS011;10162;41.600;23.806;2022-07-04T03:03:40;13.87;;;10.10;;
20002;SDS011;10162;41.600;23.806;2022-07-04T03:06:06;11.23;;;9.37;;
20002;SDS011;10162;41.600;23.806;2022-07-04T03:08:33;11.60;;;10.40;;
20002;SDS011;10162;41.600;23.806;2022-07-04T03:13:53;12.40;;;10.70;;
20002;SDS011;10162;41.600;23.806;2022-07-04T03:16:19;11.83;;;10.60;;
20002;SDS011;10162;41.600;23.806;2022-07-04T03:18:45;12.10;;;10.90;;
20002;SDS011;10162;41.600;23.806;2022-07-04T03:24:57;12.67;;;10.33;;
20002;SDS011;10162;41.600;23.806;2022-07-04T03:27:23;10.53;;;9.50;;
20002;SDS011;10162;41.600;23.806;2022-07-04T03:29:48;11.10;;;9.97;;
20002;SDS011;10162;41.600;23.806;2022-07-04T03:35:05;11.90;;;10.80;;
20002;SDS011;10162;41.600;23.806;2022-07-04T03:37:31;11.60;;;10.40;;
20002;SDS011;10162;41.600;23.806;2022-07-04T03:39:57;16.57;;;10.73;;
20002;SDS011;10162;41.600;23.806;2022-07-04T03:45:13;14.27;;;10.70;;
20002;SDS011;10162;41.600;23.806;2022-07-04T03:47:39;10.33;;;9.33;;
20002;SDS011;10162;41.600;23.806;2022-07-04T03:50:05;11.90;;;10.10;;
20002;SDS011;10162;41.600;23.806;2022-07-04T03:55:25;12.57;;;10.30;;
20002;SDS011;10162;41.600;23.806;2022-07-04T03:57:50;14.00;;;10.40;;
20002;SDS011;10162;41.600;23.806;2022-07-04T04:00:16;12.27;;;9.97;;
20002;SDS011;10162;41.600;23.806;2022-07-04T04:02:42;12.93;;;10.10;;
20002;SDS011;10162;41.600;23.806;2022-07-04T04:05:08;14.87;;;11.00;;
20002;SDS011;10162;41.600;23.806;2022-07-04T04:07:56;11.03;;;10.03;;
20002;SDS011;10162;41.600;23.806;2022-07-04T04:13:20;11.63;;;10.47;;
20002;SDS011;10162;41.600;23.806;2022-07-04T04:15:46;11.47;;;10.30;;
20002;SDS011;10162;41.600;23.806;2022-07-04T04:18:12;12.17;;;10.77;;
20002;SDS011;10162;41.600;23.806;2022-07-04T04:23:22;12.27;;;10.90;;
20002;SDS011;10162;41.600;23.806;2022-07-04T04:25:47;11.57;;;9.80;;
20002;SDS011;10162;41.600;23.806;2022-07-04T04:28:13;11.67;;;10.03;;
20002;SDS011;10162;41.600;23.806;2022-07-04T04:33:43;12.13;;;10.70;;
20002;SDS011;10162;41.600;23.806;2022-07-04T04:36:09;16.53;;;10.53;;
20002;SDS011;10162;41.600;23.806;2022-07-04T04:38:35;11.97;;;10.20;;
20002;SDS011;10162;41.600;23.806;2022-07-04T04:44:47;13.47;;;10.63;;
20002;SDS011;10162;41.600;23.806;2022-07-04T04:47:13;11.87;;;10.43;;
20002;SDS011;10162;41.600;23.806;2022-07-04T04:49:39;17.77;;;10.60;;
20002;SDS011;10162;41.600;23.806;2022-07-04T04:54:46;12.03;;;10.80;;
20002;SDS011;10162;41.600;23.806;2022-07-04T04:57:12;11.90;;;10.80;;
20002;SDS011;10162;41.600;23.806;2022-07-04T04:59:37;12.30;;;10.70;;
20002;SDS011;10162;41.600;23.806;2022-07-04T05:05:50;12.07;;;10.87;;
20002;SDS011;10162;41.600;23.806;2022-07-04T05:08:16;14.57;;;11.73;;
20002;SDS011;10162;41.600;23.806;2022-07-04T05:10:47;15.00;;;11.23;;
20002;SDS011;10162;41.600;23.806;2022-07-04T05:13:13;12.70;;;11.30;;
20002;SDS011;10162;41.600;23.806;2022-07-04T05:15:38;12.93;;;11.73;;
20002;SDS011;10162;41.600;23.806;2022-07-04T05:18:04;12.60;;;11.13;;
20002;SDS011;10162;41.600;23.806;2022-07-04T05:24:17;13.67;;;11.97;;
20002;SDS011;10162;41.600;23.806;2022-07-04T05:26:43;13.43;;;11.67;;
20002;SDS011;10162;41.600;23.806;2022-07-04T05:29:08;12.07;;;10.87;;
20002;SDS011;10162;41.600;23.806;2022-07-04T05:35:21;11.90;;;10.70;;
20002;SDS011;10162;41.600;23.806;2022-07-04T05:37:47;12.23;;;11.00;;
20002;SDS011;10162;41.600;23.806;2022-07-04T05:40:12;17.40;;;11.90;;
20002;SDS011;10162;41.600;23.806;2022-07-04T05:42:38;13.13;;;11.83;;
20002;SDS011;10162;41.600;23.806;2022-07-04T05:45:04;12.73;;;11.23;;
20002;SDS011;10162;41.600;23.806;2022-07-04T05:47:31;12.38;;;11.15;;
20002;SDS011;10162;41.600;23.806;2022-07-04T05:49:56;14.37;;;11.93;;
20002;SDS011;10162;41.600;23.806;2022-07-04T05:56:10;12.45;;;11.25;;
20002;SDS011;10162;41.600;23.806;2022-07-04T05:58:36;12.05;;;10.95;;
20002;SDS011;10162;41.600;23.806;2022-07-04T06:04:06;14.90;;;11.77;;
20002;SDS011;10162;41.600;23.806;2022-07-04T06:06:33;12.35;;;11.02;;
20002;SDS011;10162;41.600;23.806;2022-07-04T06:08:59;11.85;;;10.75;;
20002;SDS011;10162;41.600;23.806;2022-07-04T06:15:12;11.60;;;10.48;;
20002;SDS011;10162;41.600;23.806;2022-07-04T06:17:38;12.25;;;10.77;;
20002;SDS011;10162;41.600;23.806;2022-07-04T06:20:04;14.25;;;11.25;;
20002;SDS011;10162;41.600;23.806;2022-07-04T06:25:38;21.85;;;10.70;;
20002;SDS011;10162;41.600;23.806;2022-07-04T06:28:04;11.48;;;10.20;;
20002;SDS011;10162;41.600;23.806;2022-07-04T06:33:21;10.10;;;9.05;;
20002;SDS011;10162;41.600;23.806;2022-07-04T06:35:47;14.23;;;10.10;;
20002;SDS011;10162;41.600;23.806;2022-07-04T06:38:23;11.68;;;9.45;;
20002;SDS011;10162;41.600;23.806;2022-07-04T06:43:46;10.30;;;9.27;;
20002;SDS011;10162;41.600;23.806;2022-07-04T06:46:11;11.80;;;10.07;;
20002;SDS011;10162;41.600;23.806;2022-07-04T06:48:37;10.75;;;9.63;;
20002;SDS011;10162;41.600;23.806;2022-07-04T06:54:50;12.50;;;8.95;;
20002;SDS011;10162;41.600;23.806;2022-07-04T06:57:16;12.57;;;9.32;;
20002;SDS011;10162;41.600;23.806;2022-07-04T06:59:41;10.50;;;9.52;;
20002;SDS011;10162;41.600;23.806;2022-07-04T07:05:54;16.55;;;9.40;;
20002;SDS011;10162;41.600;23.806;2022-07-04T07:08:21;12.45;;;9.70;;
20002;SDS011;10162;41.600;23.806;2022-07-04T07:14:34;11.48;;;8.95;;
20002;SDS011;10162;41.600;23.806;2022-07-04T07:17:00;9.32;;;8.38;;
20002;SDS011;10162;41.600;23.806;2022-07-04T07:19:25;10.00;;;9.10;;
20002;SDS011;10162;41.600;23.806;2022-07-04T07:25:38;9.98;;;8.95;;
20002;SDS011;10162;41.600;23.806;2022-07-04T07:28:04;10.65;;;9.68;;
20002;SDS011;10162;41.600;23.806;2022-07-04T07:30:32;10.48;;;9.38;;
20002;SDS011;10162;41.600;23.806;2022-07-04T07:32:58;10.40;;;9.40;;
20002;SDS011;10162;41.600;23.806;2022-07-04T07:35:24;10.05;;;9.18;;
20002;SDS011;10162;41.600;23.806;2022-07-04T07:37:50;9.75;;;8.82;;
20002;SDS011;10162;41.600;23.806;2022-07-04T07:40:15;9.60;;;8.70;;
20002;SDS011;10162;41.600;23.806;2022-07-04T07:42:41;9.68;;;8.88;;
20002;SDS011;10162;41.600;23.806;2022-07-04T07:45:07;9.60;;;8.70;;
20002;SDS011;10162;41.600;23.806;2022-07-04T07:47:33;9.38;;;8.57;;
20002;SDS011;10162;41.600;23.806;2022-07-04T07:49:59;9.85;;;8.85;;
20002;SDS011;10162;41.600;23.806;2022-07-04T07:56:12;9.63;;;8.55;;
20002;SDS011;10162;41.600;23.806;2022-07-04T07:58:38;9.55;;;8.52;;
20002;SDS011;10162;41.600;23.806;2022-07-04T08:04:22;8.77;;;8.07;;
20002;SDS011;10162;41.600;23.806;2022-07-04T08:07:03;9.05;;;8.25;;
20002;SDS011;10162;41.600;23.806;2022-07-04T08:09:30;9.30;;;8.43;;
20002;SDS011;10162;41.600;23.806;2022-07-04T08:15:44;10.15;;;7.68;;
20002;SDS011;10162;41.600;23.806;2022-07-04T08:18:10;8.63;;;7.88;;
20002;SDS011;10162;41.600;23.806;2022-07-04T08:20:50;8.65;;;7.85;;
20002;SDS011;10162;41.600;23.806;2022-07-04T08:23:16;10.23;;;8.68;;
20002;SDS011;10162;41.600;23.806;2022-07-04T08:25:42;9.60;;;8.55;;
20002;SDS011;10162;41.600;23.806;2022-07-04T08:28:08;9.85;;;7.93;;
20002;SDS011;10162;41.600;23.806;2022-07-04T08:30:34;9.48;;;7.70;;
20002;SDS011;10162;41.600;23.806;2022-07-04T08:33:00;12.93;;;7.55;;
20002;SDS011;10162;41.600;23.806;2022-07-04T08:35:26;8.40;;;7.78;;
20002;SDS011;10162;41.600;23.806;2022-07-04T08:37:52;8.48;;;7.63;;
20002;SDS011;10162;41.600;23.806;2022-07-04T08:42:54;8.18;;;7.47;;
20002;SDS011;10162;41.600;23.806;2022-07-04T08:45:32;7.97;;;6.75;;
20002;SDS011;10162;41.600;23.806;2022-07-04T08:48:03;11.02;;;7.18;;
20002;SDS011;10162;41.600;23.806;2022-07-04T08:53:11;7.93;;;6.97;;
20002;SDS011;10162;41.600;23.806;2022-07-04T08:55:39;7.13;;;6.53;;
20002;SDS011;10162;41.600;23.806;2022-07-04T08:58:25;9.75;;;7.82;;
20002;SDS011;10162;41.600;23.806;2022-07-04T09:01:03;7.70;;;7.00;;
20002;SDS011;10162;41.600;23.806;2022-07-04T09:03:32;8.30;;;7.38;;
20002;SDS011;10162;41.600;23.806;2022-07-04T09:05:58;8.43;;;7.63;;
20002;SDS011;10162;41.600;23.806;2022-07-04T09:08:25;9.85;;;7.05;;
20002;SDS011;10162;41.600;23.806;2022-07-04T09:13:37;8.45;;;6.75;;
20002;SDS011;10162;41.600;23.806;2022-07-04T09:16:03;8.27;;;6.70;;
20002;SDS011;10162;41.600;23.806;2022-07-04T09:23:58;8.63;;;7.07;;
20002;SDS011;10162;41.600;23.806;2022-07-04T09:26:26;6.40;;;5.90;;
20002;SDS011;10162;41.600;23.806;2022-07-04T09:28:53;34.72;;;7.85;;
20002;SDS011;10162;41.600;23.806;2022-07-04T09:37:43;6.63;;;5.50;;
20002;SDS011;10162;41.600;23.806;2022-07-04T09:43:40;6.03;;;4.82;;
20002;SDS011;10162;41.600;23.806;2022-07-04T09:46:24;6.38;;;5.75;;
20002;SDS011;10162;41.600;23.806;2022-07-04T09:48:50;7.32;;;6.22;;
20002;SDS011;10162;41.600;23.806;2022-07-04T09:54:22;6.22;;;5.72;;
20002;SDS011;10162;41.600;23.806;2022-07-04T09:56:53;5.97;;;5.47;;
20002;SDS011;10162;41.600;23.806;2022-07-04T09:59:20;6.45;;;5.85;;
20002;SDS011;10162;41.600;23.806;2022-07-04T10:02:09;5.45;;;4.95;;
20002;SDS011;10162;41.600;23.806;2022-07-04T10:04:44;6.25;;;5.70;;
20002;SDS011;10162;41.600;23.806;2022-07-04T10:07:36;6.22;;;4.82;;
20002;SDS011;10162;41.600;23.806;2022-07-04T10:13:06;5.75;;;5.18;;
20002;SDS011;10162;41.600;23.806;2022-07-04T10:15:35;6.25;;;5.25;;
20002;SDS011;10162;41.600;23.806;2022-07-04T10:18:03;7.30;;;5.10;;
20002;SDS011;10162;41.600;23.806;2022-07-04T10:23:07;7.55;;;5.00;;
20002;SDS011;10162;41.600;23.806;2022-07-04T10:25:33;5.38;;;4.70;;
20002;SDS011;10162;41.600;23.806;2022-07-04T10:27:59;5.32;;;4.93;;
20002;SDS011;10162;41.600;23.806;2022-07-04T10:33:25;4.95;;;4.55;;
20002;SDS011;10162;41.600;23.806;2022-07-04T10:35:54;7.45;;;4.80;;
20002;SDS011;10162;41.600;23.806;2022-07-04T10:38:23;4.93;;;4.57;;
20002;SDS011;10162;41.600;23.806;2022-07-04T10:44:08;6.18;;;4.65;;
20002;SDS011;10162;41.600;23.806;2022-07-04T10:46:48;4.75;;;4.32;;
20002;SDS011;10162;41.600;23.806;2022-07-04T10:56:42;4.72;;;4.30;;
20002;SDS011;10162;41.600;23.806;2022-07-04T10:59:21;7.45;;;4.45;;
20002;SDS011;10162;41.600;23.806;2022-07-04T11:05:10;4.65;;;4.25;;
20002;SDS011;10162;41.600;23.806;2022-07-04T11:17:54;5.05;;;4.50;;
20002;SDS011;10162;41.600;23.806;2022-07-04T11:20:36;7.00;;;5.32;;
20002;SDS011;10162;41.600;23.806;2022-07-04T11:25:38;4.47;;;4.07;;
20002;SDS011;10162;41.600;23.806;2022-07-04T11:33:30;6.97;;;4.10;;
20002;SDS011;10162;41.600;23.806;2022-07-04T11:36:02;6.57;;;4.00;;
20002;SDS011;10162;41.600;23.806;2022-07-04T11:44:19;6.93;;;4.10;;
20002;SDS011;10162;41.600;23.806;2022-07-04T11:49:47;5.95;;;4.50;;
20002;SDS011;10162;41.600;23.806;2022-07-04T11:56:07;5.07;;;3.88;;
20002;SDS011;10162;41.600;23.806;2022-07-04T11:58:43;5.57;;;4.38;;
20002;SDS011;10162;41.600;23.806;2022-07-04T12:04:35;4.57;;;4.20;;
20002;SDS011;10162;41.600;23.806;2022-07-04T12:07:17;4.53;;;4.13;;
20002;SDS011;10162;41.600;23.806;2022-07-04T12:09:45;5.38;;;4.00;;
20002;SDS011;10162;41.600;23.806;2022-07-04T12:16:00;6.07;;;4.82;;
20002;SDS011;10162;41.600;23.806;2022-07-04T12:18:27;4.55;;;3.70;;
20002;SDS011;10162;41.600;23.806;2022-07-04T12:24:43;6.70;;;4.30;;
20002;SDS011;10162;41.600;23.806;2022-07-04T12:27:16;4.85;;;3.88;;
20002;SDS011;10162;41.600;23.806;2022-07-04T12:29:49;7.18;;;4.10;;
20002;SDS011;10162;41.600;23.806;2022-07-04T12:35:37;4.82;;;3.90;;
20002;SDS011;10162;41.600;23.806;2022-07-04T12:38:16;4.57;;;3.50;;
20002;SDS011;10162;41.600;23.806;2022-07-04T12:44:01;4.68;;;3.65;;
20002;SDS011;10162;41.600;23.806;2022-07-04T12:46:28;6.63;;;3.60;;
20002;SDS011;10162;41.600;23.806;2022-07-04T12:48:59;4.38;;;4.00;;
20002;SDS011;10162;41.600;23.806;2022-07-04T12:55:13;15.07;;;3.92;;
20002;SDS011;10162;41.600;23.806;2022-07-04T12:57:40;3.70;;;3.38;;
20002;SDS011;10162;41.600;23.806;2022-07-04T13:00:06;4.88;;;3.70;;
20002;SDS011;10162;41.600;23.806;2022-07-04T13:06:19;4.25;;;3.85;;
20002;SDS011;10162;41.600;23.806;2022-07-04T13:08:45;4.35;;;4.00;;
20002;SDS011;10162;41.600;23.806;2022-07-04T13:14:35;6.53;;;3.88;;
20002;SDS011;10162;41.600;23.806;2022-07-04T13:17:01;4.15;;;3.58;;
20002;SDS011;10162;41.600;23.806;2022-07-04T13:19:27;4.47;;;3.60;;
20002;SDS011;10162;41.600;23.806;2022-07-04T13:25:46;4.82;;;3.78;;
20002;SDS011;10162;41.600;23.806;2022-07-04T13:28:12;4.72;;;4.32;;
20002;SDS011;10162;41.600;23.806;2022-07-04T13:33:46;4.28;;;3.88;;
20002;SDS011;10162;41.600;23.806;2022-07-04T13:36:11;3.92;;;3.60;;
20002;SDS011;10162;41.600;23.806;2022-07-04T13:38:38;6.55;;;3.67;;
20002;SDS011;10162;41.600;23.806;2022-07-04T13:43:49;3.78;;;3.35;;
20002;SDS011;10162;41.600;23.806;2022-07-04T13:46:15;3.35;;;3.00;;
20002;SDS011;10162;41.600;23.806;2022-07-04T13:48:41;5.43;;;3.50;;
20002;SDS011;10162;41.600;23.806;2022-07-04T13:53:50;3.92;;;3.45;;
20002;SDS011;10162;41.600;23.806;2022-07-04T13:56:15;3.60;;;3.30;;
20002;SDS011;10162;41.600;23.806;2022-07-04T13:58:46;3.28;;;2.97;;
20002;SDS011;10162;41.600;23.806;2022-07-04T14:01:19;5.38;;;3.40;;
20002;SDS011;10162;41.600;23.806;2022-07-04T14:03:48;3.95;;;3.00;;
20002;SDS011;10162;41.600;23.806;2022-07-04T14:06:15;3.88;;;3.58;;
20002;SDS011;10162;41.600;23.806;2022-07-04T14:08:42;4.65;;;3.13;;
20002;SDS011;10162;41.600;23.806;2022-07-04T14:11:23;3.80;;;3.50;;
20002;SDS011;10162;41.600;23.806;2022-07-04T14:13:49;3.20;;;2.90;;
20002;SDS011;10162;41.600;23.806;2022-07-04T14:16:15;7.05;;;2.50;;
20002;SDS011;10162;41.600;23.806;2022-07-04T14:18:41;3.53;;;3.10;;
20002;SDS011;10162;41.600;23.806;2022-07-04T14:21:09;4.38;;;2.60;;
20002;SDS011;10162;41.600;23.806;2022-07-04T14:23:35;3.08;;;2.88;;
20002;SDS011;10162;41.600;23.806;2022-07-04T14:26:11;4.88;;;3.10;;
20002;SDS011;10162;41.600;23.806;2022-07-04T14:28:38;5.32;;;3.70;;
20002;SDS011;10162;41.600;23.806;2022-07-04T14:31:06;3.35;;;2.90;;
20002;SDS011;10162;41.600;23.806;2022-07-04T14:33:32;3.75;;;3.00;;
20002;SDS011;10162;41.600;23.806;2022-07-04T14:36:05;4.45;;;2.92;;
20002;SDS011;10162;41.600;23.806;2022-07-04T14:38:35;4.60;;;3.13;;
20002;SDS011;10162;41.600;23.806;2022-07-04T14:41:03;4.07;;;3.03;;
20002;SDS011;10162;41.600;23.806;2022-07-04T14:43:41;3.10;;;2.80;;
20002;SDS011;10162;41.600;23.806;2022-07-04T14:46:09;2.90;;;2.70;;
20002;SDS011;10162;41.600;23.806;2022-07-04T14:48:35;20.85;;;2.55;;
20002;SDS011;10162;41.600;23.806;2022-07-04T14:51:01;4.47;;;2.72;;
20002;SDS011;10162;41.600;23.806;2022-07-04T14:53:27;3.20;;;2.78;;
20002;SDS011;10162;41.600;23.806;2022-07-04T14:55:54;2.70;;;2.50;;
20002;SDS011;10162;41.600;23.806;2022-07-04T14:58:20;5.68;;;3.00;;
20002;SDS011;10162;41.600;23.806;2022-07-04T15:00:46;3.25;;;2.83;;
20002;SDS011;10162;41.600;23.806;2022-07-04T15:03:11;6.18;;;3.17;;
20002;SDS011;10162;41.600;23.806;2022-07-04T15:05:37;26.73;;;20.23;;
20002;SDS011;10162;41.600;23.806;2022-07-04T15:08:03;7.53;;;4.97;;
20002;SDS011;10162;41.600;23.806;2022-07-04T15:13:00;3.05;;;2.75;;
20002;SDS011;10162;41.600;23.806;2022-07-04T15:15:25;3.35;;;2.60;;
20002;SDS011;10162;41.600;23.806;2022-07-04T15:17:51;3.17;;;2.88;;
20002;SDS011;10162;41.600;23.806;2022-07-04T15:20:32;3.03;;;2.60;;
20002;SDS011;10162;41.600;23.806;2022-07-04T15:23:16;3.03;;;2.70;;
20002;SDS011;10162;41.600;23.806;2022-07-04T15:26:00;3.80;;;3.00;;
20002;SDS011;10162;41.600;23.806;2022-07-04T15:28:26;2.92;;;2.72;;
20002;SDS011;10162;41.600;23.806;2022-07-04T15:33:21;2.78;;;2.45;;
20002;SDS011;10162;41.600;23.806;2022-07-04T15:35:52;4.57;;;2.97;;
20002;SDS011;10162;41.600;23.806;2022-07-04T15:38:20;3.90;;;2.92;;
20002;SDS011;10162;41.600;23.806;2022-07-04T15:43:41;3.22;;;2.95;;
20002;SDS011;10162;41.600;23.806;2022-07-04T15:46:08;4.93;;;2.80;;
20002;SDS011;10162;41.600;23.806;2022-07-04T15:48:35;3.17;;;2.92;;
20002;SDS011;10162;41.600;23.806;2022-07-04T15:51:12;6.20;;;3.05;;
20002;SDS011;10162;41.600;23.806;2022-07-04T15:53:38;4.78;;;4.38;;
20002;SDS011;10162;41.600;23.806;2022-07-04T15:56:04;4.18;;;3.78;;
20002;SDS011;10162;41.600;23.806;2022-07-04T15:58:30;4.97;;;3.30;;
20002;SDS011;10162;41.600;23.806;2022-07-04T16:00:58;5.63;;;3.10;;
20002;SDS011;10162;41.600;23.806;2022-07-04T16:03:24;3.90;;;2.83;;
20002;SDS011;10162;41.600;23.806;2022-07-04T16:05:50;3.45;;;2.90;;
20002;SDS011;10162;41.600;23.806;2022-07-04T16:08:16;8.35;;;4.28;;
20002;SDS011;10162;41.600;23.806;2022-07-04T16:10:41;3.50;;;3.20;;
20002;SDS011;10162;41.600;23.806;2022-07-04T16:13:07;3.25;;;2.83;;
20002;SDS011;10162;41.600;23.806;2022-07-04T16:15:36;3.88;;;3.00;;
20002;SDS011;10162;41.600;23.806;2022-07-04T16:18:06;4.53;;;3.28;;
20002;SDS011;10162;41.600;23.806;2022-07-04T16:24:37;4.07;;;2.78;;
20002;SDS011;10162;41.600;23.806;2022-07-04T16:27:03;5.43;;;3.10;;
20002;SDS011;10162;41.600;23.806;2022-07-04T16:29:29;6.47;;;3.00;;
20002;SDS011;10162;41.600;23.806;2022-07-04T16:35:42;3.85;;;3.53;;
20002;SDS011;10162;41.600;23.806;2022-07-04T16:38:08;4.80;;;3.17;;
20002;SDS011;10162;41.600;23.806;2022-07-04T16:40:36;4.68;;;3.40;;
20002;SDS011;10162;41.600;23.806;2022-07-04T16:43:01;3.08;;;2.88;;
20002;SDS011;10162;41.600;23.806;2022-07-04T16:45:27;4.15;;;3.03;;
20002;SDS011;10162;41.600;23.806;2022-07-04T16:47:53;7.97;;;3.05;;
20002;SDS011;10162;41.600;23.806;2022-07-04T16:50:19;4.32;;;3.10;;
20002;SDS011;10162;41.600;23.806;2022-07-04T16:52:44;4.80;;;3.63;;
20002;SDS011;10162;41.600;23.806;2022-07-04T16:55:10;3.38;;;3.17;;
20002;SDS011;10162;41.600;23.806;2022-07-04T16:57:36;3.60;;;2.80;;
20002;SDS011;10162;41.600;23.806;2022-07-04T17:00:03;2.92;;;2.70;;
20002;SDS011;10162;41.600;23.806;2022-07-04T17:02:36;3.13;;;2.85;;
20002;SDS011;10162;41.600;23.806;2022-07-04T17:05:02;3.38;;;3.08;;
20002;SDS011;10162;41.600;23.806;2022-07-04T17:07:28;4.97;;;2.75;;
20002;SDS011;10162;41.600;23.806;2022-07-04T17:09:54;3.95;;;3.13;;
20002;SDS011;10162;41.600;23.806;2022-07-04T17:12:30;3.40;;;3.10;;
20002;SDS011;10162;41.600;23.806;2022-07-04T17:14:56;4.57;;;3.45;;
20002;SDS011;10162;41.600;23.806;2022-07-04T17:17:24;3.42;;;3.13;;
20002;SDS011;10162;41.600;23.806;2022-07-04T17:19:50;3.80;;;3.50;;
20002;SDS011;10162;41.600;23.806;2022-07-04T17:22:26;6.32;;;3.63;;
20002;SDS011;10162;41.600;23.806;2022-07-04T17:24:52;6.28;;;3.40;;
20002;SDS011;10162;41.600;23.806;2022-07-04T17:27:17;5.30;;;3.55;;
20002;SDS011;10162;41.600;23.806;2022-07-04T17:29:43;5.13;;;3.97;;
20002;SDS011;10162;41.600;23.806;2022-07-04T17:34:38;6.40;;;5.00;;
20002;SDS011;10162;41.600;23.806;2022-07-04T17:37:04;22.77;;;12.60;;
20002;SDS011;10162;41.600;23.806;2022-07-04T17:39:30;9.45;;;5.72;;
20002;SDS011;10162;41.600;23.806;2022-07-04T17:42:09;3.85;;;3.42;;
20002;SDS011;10162;41.600;23.806;2022-07-04T17:44:36;7.90;;;3.50;;
20002;SDS011;10162;41.600;23.806;2022-07-04T17:47:02;7.00;;;4.72;;
20002;SDS011;10162;41.600;23.806;2022-07-04T17:49:28;3.70;;;3.35;;
20002;SDS011;10162;41.600;23.806;2022-07-04T17:51:54;5.32;;;3.63;;
20002;SDS011;10162;41.600;23.806;2022-07-04T17:54:20;4.22;;;3.15;;
20002;SDS011;10162;41.600;23.806;2022-07-04T17:56:47;4.82;;;3.25;;
20002;SDS011;10162;41.600;23.806;2022-07-04T17:59:13;4.47;;;3.50;;
20002;SDS011;10162;41.600;23.806;2022-07-04T18:01:41;4.90;;;3.53;;
20002;SDS011;10162;41.600;23.806;2022-07-04T18:04:07;5.03;;;3.63;;
20002;SDS011;10162;41.600;23.806;2022-07-04T18:06:38;3.80;;;3.50;;
20002;SDS011;10162;41.600;23.806;2022-07-04T18:09:04;3.63;;;3.15;;
20002;SDS011;10162;41.600;23.806;2022-07-04T18:11:32;3.75;;;3.45;;
20002;SDS011;10162;41.600;23.806;2022-07-04T18:13:58;4.95;;;2.95;;
20002;SDS011;10162;41.600;23.806;2022-07-04T18:16:24;4.15;;;3.40;;
20002;SDS011;10162;41.600;23.806;2022-07-04T18:18:49;6.45;;;3.40;;
20002;SDS011;10162;41.600;23.806;2022-07-04T18:21:21;6.50;;;3.85;;
20002;SDS011;10162;41.600;23.806;2022-07-04T18:23:47;7.93;;;3.67;;
20002;SDS011;10162;41.600;23.806;2022-07-04T18:26:13;7.13;;;3.67;;
20002;SDS011;10162;41.600;23.806;2022-07-04T18:28:39;4.55;;;3.55;;
20002;SDS011;10162;41.600;23.806;2022-07-04T18:31:08;3.70;;;3.40;;
20002;SDS011;10162;41.600;23.806;2022-07-04T18:33:35;5.82;;;3.70;;
20002;SDS011;10162;41.600;23.806;2022-07-04T18:36:01;4.63;;;4.22;;
20002;SDS011;10162;41.600;23.806;2022-07-04T18:38:27;3.93;;;3.53;;
20002;SDS011;10162;41.600;23.806;2022-07-04T18:41:00;4.07;;;3.78;;
20002;SDS011;10162;41.600;23.806;2022-07-04T18:43:44;4.07;;;3.67;;
20002;SDS011;10162;41.600;23.806;2022-07-04T18:46:10;4.13;;;3.83;;
20002;SDS011;10162;41.600;23.806;2022-07-04T18:48:36;4.67;;;3.80;;
20002;SDS011;10162;41.600;23.806;2022-07-04T18:51:10;4.40;;;3.70;;
20002;SDS011;10162;41.600;23.806;2022-07-04T18:53:38;4.17;;;3.77;;
20002;SDS011;10162;41.600;23.806;2022-07-04T18:56:04;4.40;;;4.00;;
20002;SDS011;10162;41.600;23.806;2022-07-04T18:58:30;4.30;;;3.90;;
20002;SDS011;10162;41.600;23.806;2022-07-04T19:00:58;4.17;;;3.60;;
20002;SDS011;10162;41.600;23.806;2022-07-04T19:03:24;4.87;;;4.10;;
20002;SDS011;10162;41.600;23.806;2022-07-04T19:05:50;5.27;;;3.87;;
20002;SDS011;10162;41.600;23.806;2022-07-04T19:08:16;4.77;;;4.00;;